Main page
METAR-TAF:

METAR-TAF

Airports :

RAF Woodvale

Woodvale, England

latitude: 53-34-54N, longitude: 003-03-20W, elevation: 11 m

Current weather observation

The report was made 11 hours and 15 minutes ago, at 11:50 UTC
Wind 21 kt from the West with gusts up to 31 kt
Temperature 16°C
Humidity 72%
Pressure 1007 hPa
Visibility 10 km or more
Few clouds at a height of 1200 ft
Scattered clouds at a height of 3500 ft

METAR: EGOW 251150Z 26021G31KT 9999 FEW012 SCT035 16/11 Q1007 RMK BLU

Time: 00:05 (23:05 UTC)

Forecast

The report was made 12 hours and 20 minutes ago, at 10:45 UTC
Forecast valid from 25 at 12 UTC to 25 at 18 UTC
Wind 18 kt from the West with gusts up to 28 kt
Visibility 10 km or more
Scattered clouds at a height of 2500 ft
Probability 30% :
Temporary
from 25 at 12 UTC to 25 at 15 UTC
Visibility: 7000 m
Scattered clouds at a height of 2000 ft
light rain showers

TAF: EGOW 251045Z 2512/2518 26018G28KT 9999 SCT025 PROB30 TEMPO 2512/2515 7000 -SHRA SCT020

Weather observations and forecasts of more than 4000 airports (METAR and TAF reports).

The available stations are represented by yellow and red dots on the map.

Hover mouse over dot to see the name of the station.

Then click to see weather observations and forecasts.

To change the map : click on the green buttons with a black cross to zoom in, on the green button with a dash to zoom out, or on the green arrows for adjacent maps.


METAR-TAF: